sensor_id;sensor_type;location;lat;lon;timestamp;P1;P2;P0
49343;PMS5003;35210;41.606;-87.602;2023-04-12T00:00:04;6.00;5.80;4.60
49343;PMS5003;35210;41.606;-87.602;2023-04-12T00:02:35;5.80;5.80;4.80
49343;PMS5003;35210;41.606;-87.602;2023-04-12T00:05:05;6.20;6.20;4.80
49343;PMS5003;35210;41.606;-87.602;2023-04-12T00:07:39;6.80;5.20;4.00
49343;PMS5003;35210;41.606;-87.602;2023-04-12T00:10:11;8.00;7.00;5.00
49343;PMS5003;35210;41.606;-87.602;2023-04-12T00:12:41;6.60;6.60;4.20
49343;PMS5003;35210;41.606;-87.602;2023-04-12T00:15:10;7.60;6.00;5.00
49343;PMS5003;35210;41.606;-87.602;2023-04-12T00:17:40;6.00;6.00;4.20
49343;PMS5003;35210;41.606;-87.602;2023-04-12T00:20:09;5.60;5.20;4.60
49343;PMS5003;35210;41.606;-87.602;2023-04-12T00:22:42;9.60;7.40;5.20
49343;PMS5003;35210;41.606;-87.602;2023-04-12T00:25:11;6.00;6.00;5.00
49343;PMS5003;35210;41.606;-87.602;2023-04-12T00:27:40;5.40;4.20;4.00
49343;PMS5003;35210;41.606;-87.602;2023-04-12T00:30:09;5.60;5.60;4.00
49343;PMS5003;35210;41.606;-87.602;2023-04-12T00:32:40;5.00;5.00;4.00
49343;PMS5003;35210;41.606;-87.602;2023-04-12T00:35:09;5.60;5.60;4.40
49343;PMS5003;35210;41.606;-87.602;2023-04-12T00:37:37;8.00;6.40;5.00
49343;PMS5003;35210;41.606;-87.602;2023-04-12T00:40:09;7.60;6.60;5.40
49343;PMS5003;35210;41.606;-87.602;2023-04-12T00:42:38;5.00;5.00;4.00
49343;PMS5003;35210;41.606;-87.602;2023-04-12T00:45:07;4.80;4.20;3.40
49343;PMS5003;35210;41.606;-87.602;2023-04-12T00:47:39;6.80;5.80;4.60
49343;PMS5003;35210;41.606;-87.602;2023-04-12T00:50:09;6.20;6.00;5.20
49343;PMS5003;35210;41.606;-87.602;2023-04-12T00:52:39;5.20;5.20;4.40
49343;PMS5003;35210;41.606;-87.602;2023-04-12T00:55:10;10.40;8.80;6.00
49343;PMS5003;35210;41.606;-87.602;2023-04-12T00:57:39;7.00;7.00;5.00
49343;PMS5003;35210;41.606;-87.602;2023-04-12T01:00:08;5.80;5.80;4.60
49343;PMS5003;35210;41.606;-87.602;2023-04-12T01:02:38;7.00;6.00;5.20
49343;PMS5003;35210;41.606;-87.602;2023-04-12T01:05:12;5.80;5.40;4.00
49343;PMS5003;35210;41.606;-87.602;2023-04-12T01:07:46;6.00;6.00;5.00
49343;PMS5003;35210;41.606;-87.602;2023-04-12T01:10:26;12.00;9.20;7.20
49343;PMS5003;35210;41.606;-87.602;2023-04-12T01:13:03;7.80;7.80;5.40
49343;PMS5003;35210;41.606;-87.602;2023-04-12T01:15:40;6.20;5.00;4.00
49343;PMS5003;35210;41.606;-87.602;2023-04-12T01:18:18;7.20;7.20;5.20
49343;PMS5003;35210;41.606;-87.602;2023-04-12T01:20:50;6.20;5.40;4.00
49343;PMS5003;35210;41.606;-87.602;2023-04-12T01:23:30;8.00;7.00;5.80
49343;PMS5003;35210;41.606;-87.602;2023-04-12T01:26:16;7.60;7.00;5.40
49343;PMS5003;35210;41.606;-87.602;2023-04-12T01:28:59;6.60;6.60;5.00
49343;PMS5003;35210;41.606;-87.602;2023-04-12T01:31:30;6.60;6.00;5.00
49343;PMS5003;35210;41.606;-87.602;2023-04-12T01:34:02;7.20;7.20;6.00
49343;PMS5003;35210;41.606;-87.602;2023-04-12T01:36:31;8.20;8.20;5.40
49343;PMS5003;35210;41.606;-87.602;2023-04-12T01:39:02;7.00;7.00;5.80
49343;PMS5003;35210;41.606;-87.602;2023-04-12T01:41:31;11.60;8.00;6.00
49343;PMS5003;35210;41.606;-87.602;2023-04-12T01:44:11;7.40;5.80;4.40
49343;PMS5003;35210;41.606;-87.602;2023-04-12T01:46:40;7.20;7.00;5.80
49343;PMS5003;35210;41.606;-87.602;2023-04-12T01:49:11;6.60;6.00;5.00
49343;PMS5003;35210;41.606;-87.602;2023-04-12T01:51:48;5.00;5.00;5.00
49343;PMS5003;35210;41.606;-87.602;2023-04-12T01:54:21;10.20;10.20;6.20
49343;PMS5003;35210;41.606;-87.602;2023-04-12T01:56:54;7.00;7.00;6.00
49343;PMS5003;35210;41.606;-87.602;2023-04-12T01:59:29;7.00;7.00;5.60
49343;PMS5003;35210;41.606;-87.602;2023-04-12T02:02:01;6.60;6.20;5.00
49343;PMS5003;35210;41.606;-87.602;2023-04-12T02:04:29;6.20;6.20;5.20
49343;PMS5003;35210;41.606;-87.602;2023-04-12T02:06:59;8.80;8.20;5.80
49343;PMS5003;35210;41.606;-87.602;2023-04-12T02:09:27;6.80;6.40;5.40
49343;PMS5003;35210;41.606;-87.602;2023-04-12T02:11:55;8.40;8.40;7.00
49343;PMS5003;35210;41.606;-87.602;2023-04-12T02:14:23;7.60;7.00;6.00
49343;PMS5003;35210;41.606;-87.602;2023-04-12T02:16:53;8.40;8.40;6.00
49343;PMS5003;35210;41.606;-87.602;2023-04-12T02:19:22;8.00;8.00;6.00
49343;PMS5003;35210;41.606;-87.602;2023-04-12T02:21:50;6.80;6.20;6.00
49343;PMS5003;35210;41.606;-87.602;2023-04-12T02:24:19;7.20;6.20;4.80
49343;PMS5003;35210;41.606;-87.602;2023-04-12T02:26:47;6.60;6.00;5.20
49343;PMS5003;35210;41.606;-87.602;2023-04-12T02:29:16;8.20;7.60;6.80
49343;PMS5003;35210;41.606;-87.602;2023-04-12T02:31:44;6.20;6.20;5.40
49343;PMS5003;35210;41.606;-87.602;2023-04-12T02:34:14;7.80;6.00;4.80
49343;PMS5003;35210;41.606;-87.602;2023-04-12T02:36:45;9.20;7.40;7.00
49343;PMS5003;35210;41.606;-87.602;2023-04-12T02:39:13;4.40;4.40;3.00
49343;PMS5003;35210;41.606;-87.602;2023-04-12T02:41:43;10.40;7.80;5.40
49343;PMS5003;35210;41.606;-87.602;2023-04-12T02:44:12;7.20;7.20;5.80
49343;PMS5003;35210;41.606;-87.602;2023-04-12T02:46:40;6.80;6.80;5.00
49343;PMS5003;35210;41.606;-87.602;2023-04-12T02:49:08;7.20;7.20;6.60
49343;PMS5003;35210;41.606;-87.602;2023-04-12T02:51:38;7.60;6.60;5.00
49343;PMS5003;35210;41.606;-87.602;2023-04-12T02:54:06;7.80;5.40;4.00
49343;PMS5003;35210;41.606;-87.602;2023-04-12T02:56:34;8.80;8.80;6.00
49343;PMS5003;35210;41.606;-87.602;2023-04-12T02:59:02;5.20;5.20;4.20
49343;PMS5003;35210;41.606;-87.602;2023-04-12T03:01:31;8.40;7.00;6.00
49343;PMS5003;35210;41.606;-87.602;2023-04-12T03:03:59;6.60;6.60;5.00
49343;PMS5003;35210;41.606;-87.602;2023-04-12T03:06:27;7.60;6.00;4.80
49343;PMS5003;35210;41.606;-87.602;2023-04-12T03:08:58;8.20;8.20;5.40
49343;PMS5003;35210;41.606;-87.602;2023-04-12T03:11:26;4.80;4.00;3.60
49343;PMS5003;35210;41.606;-87.602;2023-04-12T03:13:54;8.20;7.40;6.00
49343;PMS5003;35210;41.606;-87.602;2023-04-12T03:16:23;7.00;7.00;5.20
49343;PMS5003;35210;41.606;-87.602;2023-04-12T03:18:54;9.40;6.00;5.00
49343;PMS5003;35210;41.606;-87.602;2023-04-12T03:21:23;6.40;5.20;4.20
49343;PMS5003;35210;41.606;-87.602;2023-04-12T03:23:52;12.20;7.00;6.00
49343;PMS5003;35210;41.606;-87.602;2023-04-12T03:26:22;7.60;7.60;5.80
49343;PMS5003;35210;41.606;-87.602;2023-04-12T03:28:51;7.00;7.00;5.80
49343;PMS5003;35210;41.606;-87.602;2023-04-12T03:31:20;7.40;6.60;6.00
49343;PMS5003;35210;41.606;-87.602;2023-04-12T03:33:49;10.40;7.40;5.40
49343;PMS5003;35210;41.606;-87.602;2023-04-12T03:36:17;6.80;5.60;4.00
49343;PMS5003;35210;41.606;-87.602;2023-04-12T03:38:46;5.40;3.60;3.00
49343;PMS5003;35210;41.606;-87.602;2023-04-12T03:41:14;9.00;6.20;5.60
49343;PMS5003;35210;41.606;-87.602;2023-04-12T03:43:44;8.00;7.40;5.40
49343;PMS5003;35210;41.606;-87.602;2023-04-12T03:46:12;8.80;8.40;6.40
49343;PMS5003;35210;41.606;-87.602;2023-04-12T03:48:40;6.60;5.40;5.00
49343;PMS5003;35210;41.606;-87.602;2023-04-12T03:51:09;5.00;4.20;3.60
49343;PMS5003;35210;41.606;-87.602;2023-04-12T03:53:38;6.80;3.40;2.80
49343;PMS5003;35210;41.606;-87.602;2023-04-12T03:56:06;8.80;6.40;5.20
49343;PMS5003;35210;41.606;-87.602;2023-04-12T03:58:35;7.40;6.00;4.60
49343;PMS5003;35210;41.606;-87.602;2023-04-12T04:01:05;4.80;4.80;3.60
49343;PMS5003;35210;41.606;-87.602;2023-04-12T04:03:34;8.20;6.00;4.20
49343;PMS5003;35210;41.606;-87.602;2023-04-12T04:06:06;6.20;6.20;4.00
49343;PMS5003;35210;41.606;-87.602;2023-04-12T04:08:35;6.40;6.40;4.00
49343;PMS5003;35210;41.606;-87.602;2023-04-12T04:11:04;5.40;5.40;4.20
49343;PMS5003;35210;41.606;-87.602;2023-04-12T04:13:34;5.00;5.00;3.00
49343;PMS5003;35210;41.606;-87.602;2023-04-12T04:16:03;2.00;2.00;1.40
49343;PMS5003;35210;41.606;-87.602;2023-04-12T04:18:37;5.40;5.40;4.00
49343;PMS5003;35210;41.606;-87.602;2023-04-12T04:21:07;5.00;5.00;4.00
49343;PMS5003;35210;41.606;-87.602;2023-04-12T04:23:38;4.60;4.60;4.20
49343;PMS5003;35210;41.606;-87.602;2023-04-12T04:26:09;4.20;4.20;3.40
49343;PMS5003;35210;41.606;-87.602;2023-04-12T04:28:38;4.00;4.00;3.00
49343;PMS5003;35210;41.606;-87.602;2023-04-12T04:31:12;4.80;4.80;3.00
49343;PMS5003;35210;41.606;-87.602;2023-04-12T04:33:42;3.40;3.40;2.00
49343;PMS5003;35210;41.606;-87.602;2023-04-12T04:36:10;7.40;5.20;3.00
49343;PMS5003;35210;41.606;-87.602;2023-04-12T04:38:40;4.00;4.00;3.80
49343;PMS5003;35210;41.606;-87.602;2023-04-12T04:41:08;6.40;5.80;4.00
49343;PMS5003;35210;41.606;-87.602;2023-04-12T04:43:37;5.20;5.00;3.00
49343;PMS5003;35210;41.606;-87.602;2023-04-12T04:46:07;5.00;5.00;3.40
49343;PMS5003;35210;41.606;-87.602;2023-04-12T04:48:37;4.80;4.60;3.00
49343;PMS5003;35210;41.606;-87.602;2023-04-12T04:51:09;7.00;4.00;3.20
49343;PMS5003;35210;41.606;-87.602;2023-04-12T04:53:37;5.80;5.00;3.40
49343;PMS5003;35210;41.606;-87.602;2023-04-12T04:56:06;5.80;5.80;4.20
49343;PMS5003;35210;41.606;-87.602;2023-04-12T04:58:36;4.40;4.40;3.00
49343;PMS5003;35210;41.606;-87.602;2023-04-12T05:01:04;4.80;4.80;2.40
49343;PMS5003;35210;41.606;-87.602;2023-04-12T05:03:33;4.20;4.20;3.00
49343;PMS5003;35210;41.606;-87.602;2023-04-12T05:06:04;4.00;4.00;2.80
49343;PMS5003;35210;41.606;-87.602;2023-04-12T05:08:32;6.80;4.00;3.00
49343;PMS5003;35210;41.606;-87.602;2023-04-12T05:11:01;5.20;5.20;3.60
49343;PMS5003;35210;41.606;-87.602;2023-04-12T05:13:29;5.00;5.00;3.00
49343;PMS5003;35210;41.606;-87.602;2023-04-12T05:15:57;5.20;5.20;4.00
49343;PMS5003;35210;41.606;-87.602;2023-04-12T05:18:25;5.00;5.00;3.60
49343;PMS5003;35210;41.606;-87.602;2023-04-12T05:21:00;5.00;4.60;3.60
49343;PMS5003;35210;41.606;-87.602;2023-04-12T05:23:33;9.00;7.40;4.40
49343;PMS5003;35210;41.606;-87.602;2023-04-12T05:26:02;5.80;4.00;3.60
49343;PMS5003;35210;41.606;-87.602;2023-04-12T05:28:31;6.20;5.00;4.40
49343;PMS5003;35210;41.606;-87.602;2023-04-12T05:30:59;5.00;5.00;4.00
49343;PMS5003;35210;41.606;-87.602;2023-04-12T05:33:28;5.40;5.00;3.60
49343;PMS5003;35210;41.606;-87.602;2023-04-12T05:35:59;4.40;3.60;2.80
49343;PMS5003;35210;41.606;-87.602;2023-04-12T05:38:27;5.60;5.60;4.00
49343;PMS5003;35210;41.606;-87.602;2023-04-12T05:40:58;6.40;6.40;5.00
49343;PMS5003;35210;41.606;-87.602;2023-04-12T05:43:28;4.00;4.00;3.00
49343;PMS5003;35210;41.606;-87.602;2023-04-12T05:45:57;5.00;5.00;4.00
49343;PMS5003;35210;41.606;-87.602;2023-04-12T05:48:25;4.20;4.20;3.20
49343;PMS5003;35210;41.606;-87.602;2023-04-12T05:50:54;8.20;6.00;4.20
49343;PMS5003;35210;41.606;-87.602;2023-04-12T05:53:22;4.00;4.00;3.00
49343;PMS5003;35210;41.606;-87.602;2023-04-12T05:55:54;4.00;4.00;3.40
49343;PMS5003;35210;41.606;-87.602;2023-04-12T05:58:25;5.40;5.40;4.00
49343;PMS5003;35210;41.606;-87.602;2023-04-12T06:00:53;5.00;5.00;4.00
49343;PMS5003;35210;41.606;-87.602;2023-04-12T06:03:23;5.40;4.20;3.00
49343;PMS5003;35210;41.606;-87.602;2023-04-12T06:05:51;5.40;5.20;4.40
49343;PMS5003;35210;41.606;-87.602;2023-04-12T06:08:19;5.60;5.60;3.40
49343;PMS5003;35210;41.606;-87.602;2023-04-12T06:10:48;6.40;6.40;4.60
49343;PMS5003;35210;41.606;-87.602;2023-04-12T06:13:16;6.80;5.20;4.00
49343;PMS5003;35210;41.606;-87.602;2023-04-12T06:15:47;5.40;5.40;3.40
49343;PMS5003;35210;41.606;-87.602;2023-04-12T06:18:17;7.20;5.60;4.00
49343;PMS5003;35210;41.606;-87.602;2023-04-12T06:20:45;8.80;5.80;4.60
49343;PMS5003;35210;41.606;-87.602;2023-04-12T06:23:13;4.80;4.80;3.00
49343;PMS5003;35210;41.606;-87.602;2023-04-12T06:25:43;7.00;7.00;5.00
49343;PMS5003;35210;41.606;-87.602;2023-04-12T06:28:12;5.00;5.00;4.00
49343;PMS5003;35210;41.606;-87.602;2023-04-12T06:30:41;6.00;5.20;3.00
49343;PMS5003;35210;41.606;-87.602;2023-04-12T06:33:11;6.00;6.00;4.20
49343;PMS5003;35210;41.606;-87.602;2023-04-12T06:35:40;5.40;5.40;4.40
49343;PMS5003;35210;41.606;-87.602;2023-04-12T06:38:08;4.00;4.00;3.00
49343;PMS5003;35210;41.606;-87.602;2023-04-12T06:40:36;6.20;4.20;3.00
49343;PMS5003;35210;41.606;-87.602;2023-04-12T06:43:04;4.20;4.20;3.00
49343;PMS5003;35210;41.606;-87.602;2023-04-12T06:45:32;7.00;5.80;4.40
49343;PMS5003;35210;41.606;-87.602;2023-04-12T06:48:00;6.20;5.40;4.00
49343;PMS5003;35210;41.606;-87.602;2023-04-12T06:50:30;5.60;5.60;4.00
49343;PMS5003;35210;41.606;-87.602;2023-04-12T06:52:58;7.00;6.00;3.00
49343;PMS5003;35210;41.606;-87.602;2023-04-12T06:55:26;4.00;4.00;2.80
49343;PMS5003;35210;41.606;-87.602;2023-04-12T06:57:54;5.80;5.80;3.00
49343;PMS5003;35210;41.606;-87.602;2023-04-12T07:00:22;5.20;4.00;3.00
49343;PMS5003;35210;41.606;-87.602;2023-04-12T07:02:51;6.00;6.00;4.00
49343;PMS5003;35210;41.606;-87.602;2023-04-12T07:05:19;6.20;6.20;3.00
49343;PMS5003;35210;41.606;-87.602;2023-04-12T07:07:49;5.40;5.40;2.80
49343;PMS5003;35210;41.606;-87.602;2023-04-12T07:10:17;4.60;4.60;2.80
49343;PMS5003;35210;41.606;-87.602;2023-04-12T07:12:45;6.00;5.40;4.20
49343;PMS5003;35210;41.606;-87.602;2023-04-12T07:15:13;7.60;4.40;2.40
49343;PMS5003;35210;41.606;-87.602;2023-04-12T07:17:42;4.20;4.20;3.00
49343;PMS5003;35210;41.606;-87.602;2023-04-12T07:20:11;5.00;3.00;2.20
49343;PMS5003;35210;41.606;-87.602;2023-04-12T07:22:39;3.80;3.80;2.80
49343;PMS5003;35210;41.606;-87.602;2023-04-12T07:25:08;6.00;5.00;3.00
49343;PMS5003;35210;41.606;-87.602;2023-04-12T07:27:37;3.60;3.60;2.80
49343;PMS5003;35210;41.606;-87.602;2023-04-12T07:30:06;4.00;4.00;3.00
49343;PMS5003;35210;41.606;-87.602;2023-04-12T07:32:35;5.40;5.00;3.00
49343;PMS5003;35210;41.606;-87.602;2023-04-12T07:35:04;2.60;1.00;1.00
49343;PMS5003;35210;41.606;-87.602;2023-04-12T07:37:34;3.80;3.80;2.80
49343;PMS5003;35210;41.606;-87.602;2023-04-12T07:40:02;3.80;3.80;2.00
49343;PMS5003;35210;41.606;-87.602;2023-04-12T07:42:33;3.60;3.60;2.00
49343;PMS5003;35210;41.606;-87.602;2023-04-12T07:45:01;3.40;3.40;2.00
49343;PMS5003;35210;41.606;-87.602;2023-04-12T07:47:30;5.00;5.00;2.80
49343;PMS5003;35210;41.606;-87.602;2023-04-12T07:49:58;6.60;4.40;2.80
49343;PMS5003;35210;41.606;-87.602;2023-04-12T07:52:26;5.20;5.20;2.40
49343;PMS5003;35210;41.606;-87.602;2023-04-12T07:54:55;4.40;4.40;2.20
49343;PMS5003;35210;41.606;-87.602;2023-04-12T07:57:23;4.00;4.00;2.00
49343;PMS5003;35210;41.606;-87.602;2023-04-12T07:59:53;4.00;4.00;2.20
49343;PMS5003;35210;41.606;-87.602;2023-04-12T08:02:21;4.00;2.60;2.00
49343;PMS5003;35210;41.606;-87.602;2023-04-12T08:04:50;4.60;3.60;1.80
49343;PMS5003;35210;41.606;-87.602;2023-04-12T08:07:18;4.00;3.00;3.00
49343;PMS5003;35210;41.606;-87.602;2023-04-12T08:09:48;6.60;5.60;3.00
49343;PMS5003;35210;41.606;-87.602;2023-04-12T08:12:16;5.40;4.60;3.00
49343;PMS5003;35210;41.606;-87.602;2023-04-12T08:14:45;5.60;5.00;3.00
49343;PMS5003;35210;41.606;-87.602;2023-04-12T08:17:16;5.60;4.60;4.00
49343;PMS5003;35210;41.606;-87.602;2023-04-12T08:19:45;4.60;4.00;3.00
49343;PMS5003;35210;41.606;-87.602;2023-04-12T08:22:13;6.80;4.00;3.00
49343;PMS5003;35210;41.606;-87.602;2023-04-12T08:24:41;6.40;5.00;2.20
49343;PMS5003;35210;41.606;-87.602;2023-04-12T08:27:09;6.00;6.00;3.40
49343;PMS5003;35210;41.606;-87.602;2023-04-12T08:29:38;6.00;6.00;3.60
49343;PMS5003;35210;41.606;-87.602;2023-04-12T08:32:06;9.00;5.80;4.20
49343;PMS5003;35210;41.606;-87.602;2023-04-12T08:34:39;6.00;6.00;4.60
49343;PMS5003;35210;41.606;-87.602;2023-04-12T08:37:07;6.60;6.60;4.00
49343;PMS5003;35210;41.606;-87.602;2023-04-12T08:39:35;9.20;7.00;4.00
49343;PMS5003;35210;41.606;-87.602;2023-04-12T08:42:03;6.00;5.60;3.60
49343;PMS5003;35210;41.606;-87.602;2023-04-12T08:44:33;6.20;5.60;4.20
49343;PMS5003;35210;41.606;-87.602;2023-04-12T08:47:02;7.40;7.40;5.00
49343;PMS5003;35210;41.606;-87.602;2023-04-12T08:49:32;7.40;5.80;4.00
49343;PMS5003;35210;41.606;-87.602;2023-04-12T08:52:03;6.20;6.20;4.20
49343;PMS5003;35210;41.606;-87.602;2023-04-12T08:54:32;5.60;5.60;4.00
49343;PMS5003;35210;41.606;-87.602;2023-04-12T08:57:02;9.20;7.80;5.60
49343;PMS5003;35210;41.606;-87.602;2023-04-12T08:59:33;8.00;6.20;3.80
49343;PMS5003;35210;41.606;-87.602;2023-04-12T09:02:04;4.00;4.00;2.00
49343;PMS5003;35210;41.606;-87.602;2023-04-12T09:04:32;8.00;8.00;5.00
49343;PMS5003;35210;41.606;-87.602;2023-04-12T09:07:00;7.60;5.00;3.00
49343;PMS5003;35210;41.606;-87.602;2023-04-12T09:09:41;4.80;4.40;3.60
49343;PMS5003;35210;41.606;-87.602;2023-04-12T09:12:10;7.00;6.00;4.80
49343;PMS5003;35210;41.606;-87.602;2023-04-12T09:14:38;5.00;5.00;3.40
49343;PMS5003;35210;41.606;-87.602;2023-04-12T09:17:20;6.20;6.20;4.00
49343;PMS5003;35210;41.606;-87.602;2023-04-12T09:19:49;7.80;7.80;5.00
49343;PMS5003;35210;41.606;-87.602;2023-04-12T09:22:29;5.00;5.00;3.00
49343;PMS5003;35210;41.606;-87.602;2023-04-12T09:25:01;8.80;6.80;3.80
49343;PMS5003;35210;41.606;-87.602;2023-04-12T09:27:32;9.00;7.80;5.00
49343;PMS5003;35210;41.606;-87.602;2023-04-12T09:30:13;6.20;6.20;3.40
49343;PMS5003;35210;41.606;-87.602;2023-04-12T09:32:43;6.60;5.00;3.80
49343;PMS5003;35210;41.606;-87.602;2023-04-12T09:35:11;5.60;5.40;4.00
49343;PMS5003;35210;41.606;-87.602;2023-04-12T09:37:39;7.00;5.40;4.60
49343;PMS5003;35210;41.606;-87.602;2023-04-12T09:40:09;8.40;7.00;5.00
49343;PMS5003;35210;41.606;-87.602;2023-04-12T09:42:49;6.60;6.60;4.20
49343;PMS5003;35210;41.606;-87.602;2023-04-12T09:45:19;7.20;7.20;5.00
49343;PMS5003;35210;41.606;-87.602;2023-04-12T09:47:49;7.20;6.00;3.20
49343;PMS5003;35210;41.606;-87.602;2023-04-12T09:50:19;6.00;5.00;4.40
49343;PMS5003;35210;41.606;-87.602;2023-04-12T09:52:47;4.80;4.80;3.40
49343;PMS5003;35210;41.606;-87.602;2023-04-12T09:55:17;9.20;6.60;4.40
49343;PMS5003;35210;41.606;-87.602;2023-04-12T09:57:49;7.20;4.80;3.40
49343;PMS5003;35210;41.606;-87.602;2023-04-12T10:00:19;6.60;6.20;4.20
49343;PMS5003;35210;41.606;-87.602;2023-04-12T10:02:52;6.80;6.80;5.20
49343;PMS5003;35210;41.606;-87.602;2023-04-12T10:05:22;6.00;6.00;4.20
49343;PMS5003;35210;41.606;-87.602;2023-04-12T10:07:51;7.00;6.00;4.20
49343;PMS5003;35210;41.606;-87.602;2023-04-12T10:10:21;5.60;5.40;4.60
49343;PMS5003;35210;41.606;-87.602;2023-04-12T10:12:49;8.00;7.00;4.00
49343;PMS5003;35210;41.606;-87.602;2023-04-12T10:15:18;9.40;9.00;6.40
49343;PMS5003;35210;41.606;-87.602;2023-04-12T10:17:47;6.00;6.00;4.80
49343;PMS5003;35210;41.606;-87.602;2023-04-12T10:20:16;10.40;8.00;5.80
49343;PMS5003;35210;41.606;-87.602;2023-04-12T10:22:46;6.40;6.40;4.40
49343;PMS5003;35210;41.606;-87.602;2023-04-12T10:25:15;7.00;7.00;5.00
49343;PMS5003;35210;41.606;-87.602;2023-04-12T10:27:47;8.00;6.40;5.00
49343;PMS5003;35210;41.606;-87.602;2023-04-12T10:30:19;6.00;4.80;3.20
49343;PMS5003;35210;41.606;-87.602;2023-04-12T10:35:57;7.00;6.00;4.00
49343;PMS5003;35210;41.606;-87.602;2023-04-12T10:38:28;7.60;7.60;4.60
49343;PMS5003;35210;41.606;-87.602;2023-04-12T10:41:12;8.80;6.80;4.80
49343;PMS5003;35210;41.606;-87.602;2023-04-12T10:43:43;5.80;5.40;3.40
49343;PMS5003;35210;41.606;-87.602;2023-04-12T10:49:12;5.80;5.80;4.80
49343;PMS5003;35210;41.606;-87.602;2023-04-12T10:54:39;8.60;7.00;6.00
49343;PMS5003;35210;41.606;-87.602;2023-04-12T10:57:38;7.80;7.60;5.20
49343;PMS5003;35210;41.606;-87.602;2023-04-12T11:00:16;8.00;7.40;5.80
49343;PMS5003;35210;41.606;-87.602;2023-04-12T11:03:03;6.20;4.40;3.40
49343;PMS5003;35210;41.606;-87.602;2023-04-12T11:08:27;7.20;7.20;5.00
49343;PMS5003;35210;41.606;-87.602;2023-04-12T11:10:59;9.40;7.40;5.00
49343;PMS5003;35210;41.606;-87.602;2023-04-12T11:13:31;9.00;8.00;6.00
49343;PMS5003;35210;41.606;-87.602;2023-04-12T11:16:04;7.20;6.00;5.00
49343;PMS5003;35210;41.606;-87.602;2023-04-12T11:18:32;8.60;8.00;6.00
49343;PMS5003;35210;41.606;-87.602;2023-04-12T11:21:01;9.60;8.20;5.00
49343;PMS5003;35210;41.606;-87.602;2023-04-12T11:23:30;8.00;7.00;5.00
49343;PMS5003;35210;41.606;-87.602;2023-04-12T11:26:01;6.80;5.60;5.00
49343;PMS5003;35210;41.606;-87.602;2023-04-12T11:28:30;7.80;7.00;5.00
49343;PMS5003;35210;41.606;-87.602;2023-04-12T11:30:58;8.40;7.40;5.40
49343;PMS5003;35210;41.606;-87.602;2023-04-12T11:33:33;8.60;7.40;6.00
49343;PMS5003;35210;41.606;-87.602;2023-04-12T11:36:03;8.80;8.00;5.40
49343;PMS5003;35210;41.606;-87.602;2023-04-12T11:38:33;8.00;6.00;4.00
49343;PMS5003;35210;41.606;-87.602;2023-04-12T11:41:02;5.00;5.00;3.60
49343;PMS5003;35210;41.606;-87.602;2023-04-12T11:43:32;11.40;8.00;5.00
49343;PMS5003;35210;41.606;-87.602;2023-04-12T11:46:00;9.80;9.00;5.00
49343;PMS5003;35210;41.606;-87.602;2023-04-12T11:48:29;8.80;7.60;5.00
49343;PMS5003;35210;41.606;-87.602;2023-04-12T11:50:59;9.20;7.20;5.00
49343;PMS5003;35210;41.606;-87.602;2023-04-12T11:53:44;10.20;10.20;6.00
49343;PMS5003;35210;41.606;-87.602;2023-04-12T11:56:12;9.80;9.20;5.60
49343;PMS5003;35210;41.606;-87.602;2023-04-12T11:58:40;8.40;8.40;5.60
49343;PMS5003;35210;41.606;-87.602;2023-04-12T12:01:08;8.40;7.60;5.00
49343;PMS5003;35210;41.606;-87.602;2023-04-12T12:03:36;10.60;9.40;5.40
49343;PMS5003;35210;41.606;-87.602;2023-04-12T12:06:07;7.40;7.40;5.40
49343;PMS5003;35210;41.606;-87.602;2023-04-12T12:08:36;8.00;8.00;6.00
49343;PMS5003;35210;41.606;-87.602;2023-04-12T12:11:04;7.40;7.40;4.40
49343;PMS5003;35210;41.606;-87.602;2023-04-12T12:13:42;7.00;7.00;5.60
49343;PMS5003;35210;41.606;-87.602;2023-04-12T12:16:12;12.00;10.00;6.60
49343;PMS5003;35210;41.606;-87.602;2023-04-12T12:18:40;6.80;6.20;4.00
49343;PMS5003;35210;41.606;-87.602;2023-04-12T12:21:10;8.60;8.60;5.20
49343;PMS5003;35210;41.606;-87.602;2023-04-12T12:23:41;8.60;6.40;3.80
49343;PMS5003;35210;41.606;-87.602;2023-04-12T12:26:13;10.00;9.40;5.40
49343;PMS5003;35210;41.606;-87.602;2023-04-12T12:28:49;9.20;7.80;4.60
49343;PMS5003;35210;41.606;-87.602;2023-04-12T12:31:19;7.80;7.20;4.40
49343;PMS5003;35210;41.606;-87.602;2023-04-12T12:33:47;10.40;8.80;4.80
49343;PMS5003;35210;41.606;-87.602;2023-04-12T12:36:18;14.40;9.80;7.40
49343;PMS5003;35210;41.606;-87.602;2023-04-12T12:38:46;8.80;8.20;5.20
49343;PMS5003;35210;41.606;-87.602;2023-04-12T12:41:19;8.20;6.80;4.80
49343;PMS5003;35210;41.606;-87.602;2023-04-12T12:43:49;10.40;10.40;6.00
49343;PMS5003;35210;41.606;-87.602;2023-04-12T12:46:18;12.20;9.00;6.00
49343;PMS5003;35210;41.606;-87.602;2023-04-12T12:48:47;8.20;6.80;6.20
49343;PMS5003;35210;41.606;-87.602;2023-04-12T12:51:16;12.40;9.00;6.40
49343;PMS5003;35210;41.606;-87.602;2023-04-12T12:53:45;7.80;7.80;5.00
49343;PMS5003;35210;41.606;-87.602;2023-04-12T12:56:14;9.40;9.40;5.00
49343;PMS5003;35210;41.606;-87.602;2023-04-12T12:58:42;8.40;8.40;5.00
49343;PMS5003;35210;41.606;-87.602;2023-04-12T13:01:11;7.00;7.00;5.60
49343;PMS5003;35210;41.606;-87.602;2023-04-12T13:03:39;10.00;9.00;6.00
49343;PMS5003;35210;41.606;-87.602;2023-04-12T13:06:07;6.20;6.20;5.00
49343;PMS5003;35210;41.606;-87.602;2023-04-12T13:08:37;8.40;6.80;5.00
49343;PMS5003;35210;41.606;-87.602;2023-04-12T13:11:05;8.80;8.80;5.00
49343;PMS5003;35210;41.606;-87.602;2023-04-12T13:13:33;7.20;6.00;5.00
49343;PMS5003;35210;41.606;-87.602;2023-04-12T13:16:02;6.20;6.20;5.20
49343;PMS5003;35210;41.606;-87.602;2023-04-12T13:18:30;9.20;9.20;6.80
49343;PMS5003;35210;41.606;-87.602;2023-04-12T13:20:58;9.60;8.40;6.20
49343;PMS5003;35210;41.606;-87.602;2023-04-12T13:23:26;8.80;6.20;5.80
49343;PMS5003;35210;41.606;-87.602;2023-04-12T13:25:56;8.80;8.80;6.00
49343;PMS5003;35210;41.606;-87.602;2023-04-12T13:28:24;7.60;7.60;5.20
49343;PMS5003;35210;41.606;-87.602;2023-04-12T13:30:52;7.40;7.40;5.00
49343;PMS5003;35210;41.606;-87.602;2023-04-12T13:33:20;8.80;8.80;5.80
49343;PMS5003;35210;41.606;-87.602;2023-04-12T13:35:48;6.60;5.80;2.80
49343;PMS5003;35210;41.606;-87.602;2023-04-12T13:38:17;9.20;7.60;6.00
49343;PMS5003;35210;41.606;-87.602;2023-04-12T13:40:45;8.80;6.80;5.00
49343;PMS5003;35210;41.606;-87.602;2023-04-12T13:43:15;8.60;8.00;6.00
49343;PMS5003;35210;41.606;-87.602;2023-04-12T13:45:43;9.00;9.00;5.60
49343;PMS5003;35210;41.606;-87.602;2023-04-12T13:48:11;12.20;8.40;5.80
49343;PMS5003;35210;41.606;-87.602;2023-04-12T13:50:39;11.00;9.20;6.00
49343;PMS5003;35210;41.606;-87.602;2023-04-12T13:53:07;8.00;7.60;5.20
49343;PMS5003;35210;41.606;-87.602;2023-04-12T13:55:35;7.20;7.20;3.80
49343;PMS5003;35210;41.606;-87.602;2023-04-12T13:58:03;7.80;6.20;5.00
49343;PMS5003;35210;41.606;-87.602;2023-04-12T14:00:33;10.80;8.40;5.20
49343;PMS5003;35210;41.606;-87.602;2023-04-12T14:03:01;9.40;8.60;7.00
49343;PMS5003;35210;41.606;-87.602;2023-04-12T14:05:29;13.20;11.20;9.00
49343;PMS5003;35210;41.606;-87.602;2023-04-12T14:07:58;8.20;8.20;6.20
49343;PMS5003;35210;41.606;-87.602;2023-04-12T14:10:26;8.60;8.60;6.00
49343;PMS5003;35210;41.606;-87.602;2023-04-12T14:12:54;7.80;7.80;6.80
49343;PMS5003;35210;41.606;-87.602;2023-04-12T14:15:23;6.40;6.40;5.00
49343;PMS5003;35210;41.606;-87.602;2023-04-12T14:17:52;10.00;8.00;7.00
49343;PMS5003;35210;41.606;-87.602;2023-04-12T14:20:21;11.20;10.20;7.00
49343;PMS5003;35210;41.606;-87.602;2023-04-12T14:22:49;9.00;7.20;5.00